sensor_id;sensor_type;location;lat;lon;timestamp;temperature;humidity
8067;DHT22;4076;48.076;9.118;2023-01-15T00:03:45;6.60;99.90
8067;DHT22;4076;48.076;9.118;2023-01-15T00:06:11;6.60;99.90
8067;DHT22;4076;48.076;9.118;2023-01-15T00:08:36;6.60;99.90
8067;DHT22;4076;48.076;9.118;2023-01-15T00:11:03;6.60;99.90
8067;DHT22;4076;48.076;9.118;2023-01-15T00:13:29;6.70;99.90
8067;DHT22;4076;48.076;9.118;2023-01-15T00:16:02;6.60;99.90
8067;DHT22;4076;48.076;9.118;2023-01-15T00:18:28;6.60;99.90
8067;DHT22;4076;48.076;9.118;2023-01-15T00:21:04;6.60;99.90
8067;DHT22;4076;48.076;9.118;2023-01-15T00:23:30;6.60;99.90
8067;DHT22;4076;48.076;9.118;2023-01-15T00:26:19;6.50;99.90
8067;DHT22;4076;48.076;9.118;2023-01-15T00:29:05;6.50;99.90
8067;DHT22;4076;48.076;9.118;2023-01-15T00:31:32;6.50;99.90
8067;DHT22;4076;48.076;9.118;2023-01-15T00:33:58;6.40;99.90
8067;DHT22;4076;48.076;9.118;2023-01-15T00:36:24;6.40;99.90
8067;DHT22;4076;48.076;9.118;2023-01-15T00:38:50;6.40;99.90
8067;DHT22;4076;48.076;9.118;2023-01-15T00:41:16;6.40;99.90
8067;DHT22;4076;48.076;9.118;2023-01-15T00:43:42;6.30;99.90
8067;DHT22;4076;48.076;9.118;2023-01-15T00:46:08;6.30;99.90
8067;DHT22;4076;48.076;9.118;2023-01-15T00:48:35;6.30;99.90
8067;DHT22;4076;48.076;9.118;2023-01-15T00:51:01;6.20;99.90
8067;DHT22;4076;48.076;9.118;2023-01-15T00:53:26;6.20;99.90
8067;DHT22;4076;48.076;9.118;2023-01-15T00:55:52;6.00;99.90
8067;DHT22;4076;48.076;9.118;2023-01-15T00:58:18;6.00;99.90
8067;DHT22;4076;48.076;9.118;2023-01-15T01:00:43;5.90;99.90
8067;DHT22;4076;48.076;9.118;2023-01-15T01:03:09;5.80;99.90
8067;DHT22;4076;48.076;9.118;2023-01-15T01:05:34;5.80;99.90
8067;DHT22;4076;48.076;9.118;2023-01-15T01:08:00;5.80;99.90
8067;DHT22;4076;48.076;9.118;2023-01-15T01:10:26;5.80;99.90
8067;DHT22;4076;48.076;9.118;2023-01-15T01:12:52;5.90;99.90
8067;DHT22;4076;48.076;9.118;2023-01-15T01:15:19;5.90;99.90
8067;DHT22;4076;48.076;9.118;2023-01-15T01:17:44;6.00;99.90
8067;DHT22;4076;48.076;9.118;2023-01-15T01:22:40;6.20;99.90
8067;DHT22;4076;48.076;9.118;2023-01-15T01:25:06;6.30;99.90
8067;DHT22;4076;48.076;9.118;2023-01-15T01:27:32;6.50;99.90
8067;DHT22;4076;48.076;9.118;2023-01-15T01:29:57;6.60;99.90
8067;DHT22;4076;48.076;9.118;2023-01-15T01:32:23;6.80;99.90
8067;DHT22;4076;48.076;9.118;2023-01-15T01:34:48;6.90;99.90
8067;DHT22;4076;48.076;9.118;2023-01-15T01:37:15;7.00;99.90
8067;DHT22;4076;48.076;9.118;2023-01-15T01:39:41;7.10;99.90
8067;DHT22;4076;48.076;9.118;2023-01-15T01:42:14;7.10;99.90
8067;DHT22;4076;48.076;9.118;2023-01-15T01:47:12;7.30;99.90
8067;DHT22;4076;48.076;9.118;2023-01-15T01:49:41;7.30;99.90
8067;DHT22;4076;48.076;9.118;2023-01-15T01:52:12;7.30;99.90
8067;DHT22;4076;48.076;9.118;2023-01-15T01:54:41;7.40;99.90
8067;DHT22;4076;48.076;9.118;2023-01-15T01:57:08;7.40;99.90
8067;DHT22;4076;48.076;9.118;2023-01-15T01:59:35;7.40;99.90
8067;DHT22;4076;48.076;9.118;2023-01-15T02:02:01;7.50;99.90
8067;DHT22;4076;48.076;9.118;2023-01-15T02:04:28;7.50;99.90
8067;DHT22;4076;48.076;9.118;2023-01-15T02:06:56;7.40;99.90
8067;DHT22;4076;48.076;9.118;2023-01-15T02:09:23;7.40;99.90
8067;DHT22;4076;48.076;9.118;2023-01-15T02:11:50;7.50;99.90
8067;DHT22;4076;48.076;9.118;2023-01-15T02:14:29;7.40;99.90
8067;DHT22;4076;48.076;9.118;2023-01-15T02:28:17;7.40;99.90
8067;DHT22;4076;48.076;9.118;2023-01-15T02:30:49;7.40;99.90
8067;DHT22;4076;48.076;9.118;2023-01-15T02:33:22;7.50;99.90
8067;DHT22;4076;48.076;9.118;2023-01-15T02:35:56;7.50;99.90
8067;DHT22;4076;48.076;9.118;2023-01-15T02:38:28;7.50;99.90
8067;DHT22;4076;48.076;9.118;2023-01-15T02:40:58;7.50;99.90
8067;DHT22;4076;48.076;9.118;2023-01-15T02:43:26;7.60;99.90
8067;DHT22;4076;48.076;9.118;2023-01-15T02:45:54;7.50;99.90
8067;DHT22;4076;48.076;9.118;2023-01-15T02:48:25;7.60;99.90
8067;DHT22;4076;48.076;9.118;2023-01-15T02:50:55;7.60;99.90
8067;DHT22;4076;48.076;9.118;2023-01-15T02:53:27;7.50;99.90
8067;DHT22;4076;48.076;9.118;2023-01-15T02:55:57;7.50;99.90
8067;DHT22;4076;48.076;9.118;2023-01-15T02:58:31;7.50;99.90
8067;DHT22;4076;48.076;9.118;2023-01-15T03:01:00;7.60;99.90
8067;DHT22;4076;48.076;9.118;2023-01-15T03:03:52;7.60;99.90
8067;DHT22;4076;48.076;9.118;2023-01-15T03:06:35;7.70;99.90
8067;DHT22;4076;48.076;9.118;2023-01-15T03:09:01;7.70;99.90
8067;DHT22;4076;48.076;9.118;2023-01-15T03:11:27;7.70;99.90
8067;DHT22;4076;48.076;9.118;2023-01-15T03:14:06;7.70;99.90
8067;DHT22;4076;48.076;9.118;2023-01-15T03:27:04;7.70;99.90
8067;DHT22;4076;48.076;9.118;2023-01-15T03:29:33;7.70;99.90
8067;DHT22;4076;48.076;9.118;2023-01-15T03:32:01;7.80;99.90
8067;DHT22;4076;48.076;9.118;2023-01-15T03:34:35;7.80;99.90
8067;DHT22;4076;48.076;9.118;2023-01-15T03:37:02;7.80;99.90
8067;DHT22;4076;48.076;9.118;2023-01-15T03:39:28;7.80;99.90
8067;DHT22;4076;48.076;9.118;2023-01-15T03:42:11;7.80;99.90
8067;DHT22;4076;48.076;9.118;2023-01-15T03:50:33;7.90;99.90
8067;DHT22;4076;48.076;9.118;2023-01-15T03:53:20;7.90;99.90
8067;DHT22;4076;48.076;9.118;2023-01-15T03:56:05;8.00;99.90
8067;DHT22;4076;48.076;9.118;2023-01-15T03:58:38;8.00;99.90
8067;DHT22;4076;48.076;9.118;2023-01-15T04:01:09;8.00;99.90
8067;DHT22;4076;48.076;9.118;2023-01-15T04:03:36;8.00;99.90
8067;DHT22;4076;48.076;9.118;2023-01-15T04:06:03;8.00;99.90
8067;DHT22;4076;48.076;9.118;2023-01-15T04:08:32;8.00;99.90
8067;DHT22;4076;48.076;9.118;2023-01-15T04:11:00;8.10;99.90
8067;DHT22;4076;48.076;9.118;2023-01-15T04:13:27;8.10;99.90
8067;DHT22;4076;48.076;9.118;2023-01-15T04:15:53;8.10;99.90
8067;DHT22;4076;48.076;9.118;2023-01-15T04:18:19;8.00;99.90
8067;DHT22;4076;48.076;9.118;2023-01-15T04:20:45;8.10;99.90
8067;DHT22;4076;48.076;9.118;2023-01-15T04:23:11;8.10;99.90
8067;DHT22;4076;48.076;9.118;2023-01-15T04:25:37;8.10;99.90
8067;DHT22;4076;48.076;9.118;2023-01-15T04:28:04;8.10;99.90
8067;DHT22;4076;48.076;9.118;2023-01-15T04:30:29;8.10;99.90
8067;DHT22;4076;48.076;9.118;2023-01-15T04:32:55;8.10;99.90
8067;DHT22;4076;48.076;9.118;2023-01-15T04:35:20;8.10;99.90
8067;DHT22;4076;48.076;9.118;2023-01-15T04:37:46;8.10;99.90
8067;DHT22;4076;48.076;9.118;2023-01-15T04:40:12;8.10;99.90
8067;DHT22;4076;48.076;9.118;2023-01-15T04:42:57;8.10;99.90
8067;DHT22;4076;48.076;9.118;2023-01-15T04:45:45;8.10;99.90
8067;DHT22;4076;48.076;9.118;2023-01-15T04:48:11;8.10;99.90
8067;DHT22;4076;48.076;9.118;2023-01-15T04:50:39;8.10;99.90
8067;DHT22;4076;48.076;9.118;2023-01-15T04:53:05;8.10;99.90
8067;DHT22;4076;48.076;9.118;2023-01-15T04:55:31;8.10;99.90
8067;DHT22;4076;48.076;9.118;2023-01-15T04:57:56;8.10;99.90
8067;DHT22;4076;48.076;9.118;2023-01-15T05:00:22;8.10;99.90
8067;DHT22;4076;48.076;9.118;2023-01-15T05:02:48;8.10;99.90
8067;DHT22;4076;48.076;9.118;2023-01-15T05:05:14;8.20;99.90
8067;DHT22;4076;48.076;9.118;2023-01-15T05:07:40;8.10;99.90
8067;DHT22;4076;48.076;9.118;2023-01-15T05:10:05;8.10;99.90
8067;DHT22;4076;48.076;9.118;2023-01-15T05:12:31;8.20;99.90
8067;DHT22;4076;48.076;9.118;2023-01-15T05:14:57;8.20;99.90
8067;DHT22;4076;48.076;9.118;2023-01-15T05:17:22;8.20;99.90
8067;DHT22;4076;48.076;9.118;2023-01-15T05:19:48;8.20;99.90
8067;DHT22;4076;48.076;9.118;2023-01-15T05:22:13;8.20;99.90
8067;DHT22;4076;48.076;9.118;2023-01-15T05:24:39;8.20;99.90
8067;DHT22;4076;48.076;9.118;2023-01-15T05:27:04;8.20;99.90
8067;DHT22;4076;48.076;9.118;2023-01-15T05:29:30;8.30;99.90
8067;DHT22;4076;48.076;9.118;2023-01-15T05:31:56;8.30;99.90
8067;DHT22;4076;48.076;9.118;2023-01-15T05:34:22;8.30;99.90
8067;DHT22;4076;48.076;9.118;2023-01-15T05:36:48;8.30;99.90
8067;DHT22;4076;48.076;9.118;2023-01-15T05:39:13;8.40;99.90
8067;DHT22;4076;48.076;9.118;2023-01-15T05:41:39;8.40;99.90
8067;DHT22;4076;48.076;9.118;2023-01-15T05:44:34;8.50;99.90
8067;DHT22;4076;48.076;9.118;2023-01-15T05:47:01;8.50;99.90
8067;DHT22;4076;48.076;9.118;2023-01-15T05:49:33;8.50;99.90
8067;DHT22;4076;48.076;9.118;2023-01-15T05:52:00;8.50;99.90
8067;DHT22;4076;48.076;9.118;2023-01-15T05:54:28;8.50;99.90
8067;DHT22;4076;48.076;9.118;2023-01-15T05:56:54;8.50;99.90
8067;DHT22;4076;48.076;9.118;2023-01-15T05:59:23;8.50;99.90
8067;DHT22;4076;48.076;9.118;2023-01-15T06:01:49;8.20;99.90
8067;DHT22;4076;48.076;9.118;2023-01-15T06:04:15;8.40;99.90
8067;DHT22;4076;48.076;9.118;2023-01-15T06:06:45;8.40;99.90
8067;DHT22;4076;48.076;9.118;2023-01-15T06:09:11;8.40;99.90
8067;DHT22;4076;48.076;9.118;2023-01-15T06:11:37;8.40;99.90
8067;DHT22;4076;48.076;9.118;2023-01-15T06:14:02;8.40;99.90
8067;DHT22;4076;48.076;9.118;2023-01-15T06:16:28;8.40;99.90
8067;DHT22;4076;48.076;9.118;2023-01-15T06:18:54;8.40;99.90
8067;DHT22;4076;48.076;9.118;2023-01-15T06:21:19;8.30;99.90
8067;DHT22;4076;48.076;9.118;2023-01-15T06:23:45;8.30;99.90
8067;DHT22;4076;48.076;9.118;2023-01-15T06:26:16;8.30;99.90
8067;DHT22;4076;48.076;9.118;2023-01-15T06:28:42;8.30;99.90
8067;DHT22;4076;48.076;9.118;2023-01-15T06:31:11;8.30;99.90
8067;DHT22;4076;48.076;9.118;2023-01-15T06:33:37;8.30;99.90
8067;DHT22;4076;48.076;9.118;2023-01-15T06:36:11;8.30;99.90
8067;DHT22;4076;48.076;9.118;2023-01-15T06:38:37;8.30;99.90
8067;DHT22;4076;48.076;9.118;2023-01-15T06:41:05;8.30;99.90
8067;DHT22;4076;48.076;9.118;2023-01-15T06:43:54;8.30;99.90
8067;DHT22;4076;48.076;9.118;2023-01-15T06:46:45;8.40;99.90
8067;DHT22;4076;48.076;9.118;2023-01-15T06:49:30;8.30;99.90
8067;DHT22;4076;48.076;9.118;2023-01-15T06:51:56;8.30;99.90
8067;DHT22;4076;48.076;9.118;2023-01-15T06:54:22;8.30;99.90
8067;DHT22;4076;48.076;9.118;2023-01-15T06:56:47;8.20;99.90
8067;DHT22;4076;48.076;9.118;2023-01-15T06:59:13;8.30;99.90
8067;DHT22;4076;48.076;9.118;2023-01-15T07:01:39;8.20;99.90
8067;DHT22;4076;48.076;9.118;2023-01-15T07:04:04;8.20;99.90
8067;DHT22;4076;48.076;9.118;2023-01-15T07:06:30;8.20;99.90
8067;DHT22;4076;48.076;9.118;2023-01-15T07:08:56;8.20;99.90
8067;DHT22;4076;48.076;9.118;2023-01-15T07:11:21;8.20;99.90
8067;DHT22;4076;48.076;9.118;2023-01-15T07:13:47;8.20;99.90
8067;DHT22;4076;48.076;9.118;2023-01-15T07:16:13;8.20;99.90
8067;DHT22;4076;48.076;9.118;2023-01-15T07:18:53;8.20;99.90
8067;DHT22;4076;48.076;9.118;2023-01-15T07:21:20;8.10;99.90
8067;DHT22;4076;48.076;9.118;2023-01-15T07:23:45;8.30;99.90
8067;DHT22;4076;48.076;9.118;2023-01-15T07:26:11;8.10;99.90
8067;DHT22;4076;48.076;9.118;2023-01-15T07:28:36;8.10;99.90
8067;DHT22;4076;48.076;9.118;2023-01-15T07:31:02;8.10;99.90
8067;DHT22;4076;48.076;9.118;2023-01-15T07:33:28;8.10;99.90
8067;DHT22;4076;48.076;9.118;2023-01-15T07:35:54;8.10;99.90
8067;DHT22;4076;48.076;9.118;2023-01-15T07:38:21;8.10;99.90
8067;DHT22;4076;48.076;9.118;2023-01-15T07:40:46;8.10;99.90
8067;DHT22;4076;48.076;9.118;2023-01-15T07:43:32;8.20;99.90
8067;DHT22;4076;48.076;9.118;2023-01-15T07:46:16;8.20;99.90
8067;DHT22;4076;48.076;9.118;2023-01-15T07:49:00;8.30;99.90
8067;DHT22;4076;48.076;9.118;2023-01-15T07:51:48;8.20;99.90
8067;DHT22;4076;48.076;9.118;2023-01-15T07:54:14;8.30;99.90
8067;DHT22;4076;48.076;9.118;2023-01-15T07:56:39;8.30;99.90
8067;DHT22;4076;48.076;9.118;2023-01-15T07:59:05;8.30;99.90
8067;DHT22;4076;48.076;9.118;2023-01-15T08:01:31;8.40;99.90
8067;DHT22;4076;48.076;9.118;2023-01-15T08:03:57;8.40;99.90
8067;DHT22;4076;48.076;9.118;2023-01-15T08:06:22;8.40;99.90
8067;DHT22;4076;48.076;9.118;2023-01-15T08:08:48;8.40;99.90
8067;DHT22;4076;48.076;9.118;2023-01-15T08:11:13;8.50;99.90
8067;DHT22;4076;48.076;9.118;2023-01-15T08:13:57;8.50;99.90
8067;DHT22;4076;48.076;9.118;2023-01-15T08:16:42;8.50;99.90
8067;DHT22;4076;48.076;9.118;2023-01-15T08:19:07;8.50;99.90
8067;DHT22;4076;48.076;9.118;2023-01-15T08:21:33;8.50;99.90
8067;DHT22;4076;48.076;9.118;2023-01-15T08:23:58;8.50;99.90
8067;DHT22;4076;48.076;9.118;2023-01-15T08:26:24;8.50;99.90
8067;DHT22;4076;48.076;9.118;2023-01-15T08:28:49;8.50;99.90
8067;DHT22;4076;48.076;9.118;2023-01-15T08:31:15;8.30;99.90
8067;DHT22;4076;48.076;9.118;2023-01-15T08:33:40;8.10;99.90
8067;DHT22;4076;48.076;9.118;2023-01-15T08:36:06;7.80;99.90
8067;DHT22;4076;48.076;9.118;2023-01-15T08:38:33;7.60;99.90
8067;DHT22;4076;48.076;9.118;2023-01-15T08:40:58;7.40;99.90
8067;DHT22;4076;48.076;9.118;2023-01-15T08:43:25;7.20;99.90
8067;DHT22;4076;48.076;9.118;2023-01-15T08:45:52;7.20;99.90
8067;DHT22;4076;48.076;9.118;2023-01-15T08:48:17;7.00;99.90
8067;DHT22;4076;48.076;9.118;2023-01-15T08:50:43;6.90;99.90
8067;DHT22;4076;48.076;9.118;2023-01-15T08:53:09;6.90;99.90
8067;DHT22;4076;48.076;9.118;2023-01-15T08:55:36;6.80;99.90
8067;DHT22;4076;48.076;9.118;2023-01-15T08:58:01;6.70;99.90
8067;DHT22;4076;48.076;9.118;2023-01-15T09:00:27;6.70;99.90
8067;DHT22;4076;48.076;9.118;2023-01-15T09:02:52;6.70;99.90
8067;DHT22;4076;48.076;9.118;2023-01-15T09:05:18;6.70;99.90
8067;DHT22;4076;48.076;9.118;2023-01-15T09:07:44;6.60;99.90
8067;DHT22;4076;48.076;9.118;2023-01-15T09:10:09;6.60;99.90
8067;DHT22;4076;48.076;9.118;2023-01-15T09:12:35;6.50;99.90
8067;DHT22;4076;48.076;9.118;2023-01-15T09:15:00;6.40;99.90
8067;DHT22;4076;48.076;9.118;2023-01-15T09:17:26;6.30;99.90
8067;DHT22;4076;48.076;9.118;2023-01-15T09:19:52;6.40;99.90
8067;DHT22;4076;48.076;9.118;2023-01-15T09:22:18;6.30;99.90
8067;DHT22;4076;48.076;9.118;2023-01-15T09:24:43;6.30;99.90
8067;DHT22;4076;48.076;9.118;2023-01-15T09:27:11;6.30;99.90
8067;DHT22;4076;48.076;9.118;2023-01-15T09:29:36;6.40;99.90
8067;DHT22;4076;48.076;9.118;2023-01-15T09:32:02;6.40;99.90
8067;DHT22;4076;48.076;9.118;2023-01-15T09:34:27;6.40;99.90
8067;DHT22;4076;48.076;9.118;2023-01-15T09:36:53;6.50;99.90
8067;DHT22;4076;48.076;9.118;2023-01-15T09:39:18;6.40;99.90
8067;DHT22;4076;48.076;9.118;2023-01-15T09:41:57;6.40;99.90
8067;DHT22;4076;48.076;9.118;2023-01-15T09:47:22;6.50;99.90
8067;DHT22;4076;48.076;9.118;2023-01-15T09:55:53;6.80;99.90
8067;DHT22;4076;48.076;9.118;2023-01-15T09:58:35;6.80;99.90
8067;DHT22;4076;48.076;9.118;2023-01-15T10:01:02;6.90;99.90
8067;DHT22;4076;48.076;9.118;2023-01-15T10:03:47;7.00;99.90
8067;DHT22;4076;48.076;9.118;2023-01-15T10:06:24;7.10;99.90
8067;DHT22;4076;48.076;9.118;2023-01-15T10:09:00;7.10;99.90
8067;DHT22;4076;48.076;9.118;2023-01-15T10:11:35;7.20;99.90
8067;DHT22;4076;48.076;9.118;2023-01-15T10:14:33;7.10;99.90
8067;DHT22;4076;48.076;9.118;2023-01-15T10:17:05;7.00;99.90
8067;DHT22;4076;48.076;9.118;2023-01-15T10:19:32;7.00;99.90
8067;DHT22;4076;48.076;9.118;2023-01-15T10:22:05;6.90;99.90
8067;DHT22;4076;48.076;9.118;2023-01-15T10:24:38;6.90;99.90
8067;DHT22;4076;48.076;9.118;2023-01-15T10:27:21;6.90;99.90
8067;DHT22;4076;48.076;9.118;2023-01-15T10:30:14;6.90;99.90
8067;DHT22;4076;48.076;9.118;2023-01-15T10:32:50;6.80;99.90
8067;DHT22;4076;48.076;9.118;2023-01-15T10:40:33;6.80;99.90
8067;DHT22;4076;48.076;9.118;2023-01-15T10:46:24;6.50;99.90
8067;DHT22;4076;48.076;9.118;2023-01-15T10:48:57;6.40;99.90
8067;DHT22;4076;48.076;9.118;2023-01-15T10:54:03;6.10;99.90
8067;DHT22;4076;48.076;9.118;2023-01-15T10:56:53;6.10;99.90
8067;DHT22;4076;48.076;9.118;2023-01-15T11:02:02;5.90;99.90
8067;DHT22;4076;48.076;9.118;2023-01-15T11:04:31;5.90;99.90
8067;DHT22;4076;48.076;9.118;2023-01-15T11:06:57;5.80;99.90
8067;DHT22;4076;48.076;9.118;2023-01-15T11:09:26;5.80;99.90
8067;DHT22;4076;48.076;9.118;2023-01-15T11:12:19;5.80;99.90
8067;DHT22;4076;48.076;9.118;2023-01-15T11:14:49;5.70;99.90
8067;DHT22;4076;48.076;9.118;2023-01-15T11:17:45;5.60;99.90
8067;DHT22;4076;48.076;9.118;2023-01-15T11:20:32;5.60;99.90
8067;DHT22;4076;48.076;9.118;2023-01-15T11:23:18;5.50;99.90
8067;DHT22;4076;48.076;9.118;2023-01-15T11:26:20;5.50;99.90
8067;DHT22;4076;48.076;9.118;2023-01-15T11:28:47;5.50;99.90
8067;DHT22;4076;48.076;9.118;2023-01-15T11:31:14;5.50;99.90
8067;DHT22;4076;48.076;9.118;2023-01-15T11:33:44;5.60;99.90
8067;DHT22;4076;48.076;9.118;2023-01-15T11:36:25;5.60;99.90
8067;DHT22;4076;48.076;9.118;2023-01-15T11:38:51;5.60;99.90
8067;DHT22;4076;48.076;9.118;2023-01-15T11:41:29;5.60;99.90
8067;DHT22;4076;48.076;9.118;2023-01-15T11:44:14;5.60;99.90
8067;DHT22;4076;48.076;9.118;2023-01-15T11:46:59;5.60;99.90
8067;DHT22;4076;48.076;9.118;2023-01-15T11:49:52;5.60;99.90
8067;DHT22;4076;48.076;9.118;2023-01-15T11:52:42;5.60;99.90
8067;DHT22;4076;48.076;9.118;2023-01-15T11:55:11;5.60;99.90
8067;DHT22;4076;48.076;9.118;2023-01-15T11:57:38;5.60;99.90
8067;DHT22;4076;48.076;9.118;2023-01-15T12:00:05;5.60;99.90
8067;DHT22;4076;48.076;9.118;2023-01-15T12:02:37;5.60;99.90
8067;DHT22;4076;48.076;9.118;2023-01-15T12:05:16;5.50;99.90
8067;DHT22;4076;48.076;9.118;2023-01-15T12:07:43;5.50;99.90
8067;DHT22;4076;48.076;9.118;2023-01-15T12:29:36;5.50;99.90
8067;DHT22;4076;48.076;9.118;2023-01-15T12:32:10;5.50;99.90
8067;DHT22;4076;48.076;9.118;2023-01-15T12:37:12;5.40;99.90
8067;DHT22;4076;48.076;9.118;2023-01-15T12:39:56;5.50;99.90
8067;DHT22;4076;48.076;9.118;2023-01-15T12:42:24;5.50;99.90
8067;DHT22;4076;48.076;9.118;2023-01-15T12:45:17;5.40;99.90
8067;DHT22;4076;48.076;9.118;2023-01-15T12:53:11;5.40;99.90
8067;DHT22;4076;48.076;9.118;2023-01-15T12:58:38;5.30;99.90
8067;DHT22;4076;48.076;9.118;2023-01-15T13:01:25;5.30;99.90
8067;DHT22;4076;48.076;9.118;2023-01-15T13:04:04;5.30;99.90
8067;DHT22;4076;48.076;9.118;2023-01-15T13:06:34;5.30;99.90
8067;DHT22;4076;48.076;9.118;2023-01-15T13:09:17;5.30;99.90
8067;DHT22;4076;48.076;9.118;2023-01-15T13:11:43;5.30;99.90
8067;DHT22;4076;48.076;9.118;2023-01-15T13:14:14;5.30;99.90
8067;DHT22;4076;48.076;9.118;2023-01-15T13:21:52;5.30;99.90
8067;DHT22;4076;48.076;9.118;2023-01-15T13:24:26;5.30;99.90
8067;DHT22;4076;48.076;9.118;2023-01-15T13:32:33;5.30;99.90
8067;DHT22;4076;48.076;9.118;2023-01-15T13:37:47;5.20;99.90
8067;DHT22;4076;48.076;9.118;2023-01-15T13:40:28;5.20;99.90
8067;DHT22;4076;48.076;9.118;2023-01-15T13:42:57;5.30;99.90
8067;DHT22;4076;48.076;9.118;2023-01-15T13:47:54;5.20;99.90
8067;DHT22;4076;48.076;9.118;2023-01-15T13:50:30;5.20;99.90
8067;DHT22;4076;48.076;9.118;2023-01-15T13:55:39;5.20;99.90
8067;DHT22;4076;48.076;9.118;2023-01-15T13:58:25;5.20;99.90
8067;DHT22;4076;48.076;9.118;2023-01-15T14:01:22;5.10;99.90
8067;DHT22;4076;48.076;9.118;2023-01-15T14:06:51;5.10;99.90
8067;DHT22;4076;48.076;9.118;2023-01-15T14:12:03;5.10;99.90
8067;DHT22;4076;48.076;9.118;2023-01-15T14:32:07;4.80;99.90
8067;DHT22;4076;48.076;9.118;2023-01-15T14:34:35;4.70;99.90
8067;DHT22;4076;48.076;9.118;2023-01-15T14:37:03;4.80;99.90
8067;DHT22;4076;48.076;9.118;2023-01-15T14:39:52;4.70;99.90
8067;DHT22;4076;48.076;9.118;2023-01-15T14:47:59;4.70;99.90
8067;DHT22;4076;48.076;9.118;2023-01-15T14:52:53;4.60;99.90
8067;DHT22;4076;48.076;9.118;2023-01-15T14:55:21;4.50;99.90
8067;DHT22;4076;48.076;9.118;2023-01-15T14:58:04;4.50;99.90
8067;DHT22;4076;48.076;9.118;2023-01-15T15:00:38;4.50;99.90
8067;DHT22;4076;48.076;9.118;2023-01-15T15:03:15;4.60;99.90
8067;DHT22;4076;48.076;9.118;2023-01-15T15:05:42;4.60;99.90
8067;DHT22;4076;48.076;9.118;2023-01-15T15:08:14;4.70;99.90
8067;DHT22;4076;48.076;9.118;2023-01-15T15:10:43;4.80;99.90
8067;DHT22;4076;48.076;9.118;2023-01-15T15:13:13;4.80;99.90
8067;DHT22;4076;48.076;9.118;2023-01-15T15:15:51;4.80;99.90
8067;DHT22;4076;48.076;9.118;2023-01-15T15:18:30;4.80;99.90
8067;DHT22;4076;48.076;9.118;2023-01-15T15:21:12;4.70;99.90
8067;DHT22;4076;48.076;9.118;2023-01-15T15:23:52;4.60;99.90
8067;DHT22;4076;48.076;9.118;2023-01-15T15:26:34;4.60;99.90
8067;DHT22;4076;48.076;9.118;2023-01-15T15:29:13;4.50;99.90
8067;DHT22;4076;48.076;9.118;2023-01-15T15:34:40;4.30;99.90
8067;DHT22;4076;48.076;9.118;2023-01-15T15:37:22;4.20;99.90
8067;DHT22;4076;48.076;9.118;2023-01-15T15:40:04;4.00;99.90
8067;DHT22;4076;48.076;9.118;2023-01-15T15:42:40;3.90;99.90
8067;DHT22;4076;48.076;9.118;2023-01-15T15:45:28;3.70;99.90
8067;DHT22;4076;48.076;9.118;2023-01-15T15:48:17;3.60;99.90
8067;DHT22;4076;48.076;9.118;2023-01-15T15:51:02;3.50;99.90
8067;DHT22;4076;48.076;9.118;2023-01-15T15:53:29;3.50;99.90
8067;DHT22;4076;48.076;9.118;2023-01-15T15:55:56;3.50;99.90
8067;DHT22;4076;48.076;9.118;2023-01-15T15:58:23;3.40;99.90
8067;DHT22;4076;48.076;9.118;2023-01-15T16:00:50;3.40;99.90
8067;DHT22;4076;48.076;9.118;2023-01-15T16:03:23;3.30;99.90
8067;DHT22;4076;48.076;9.118;2023-01-15T16:06:06;3.30;99.90
8067;DHT22;4076;48.076;9.118;2023-01-15T16:08:34;3.30;99.90
8067;DHT22;4076;48.076;9.118;2023-01-15T16:11:10;3.20;99.90
8067;DHT22;4076;48.076;9.118;2023-01-15T16:13:46;3.20;99.90
8067;DHT22;4076;48.076;9.118;2023-01-15T16:16:13;3.10;99.90
8067;DHT22;4076;48.076;9.118;2023-01-15T16:19:00;3.10;99.90
8067;DHT22;4076;48.076;9.118;2023-01-15T16:21:34;3.00;99.90
8067;DHT22;4076;48.076;9.118;2023-01-15T16:24:08;2.90;99.90
8067;DHT22;4076;48.076;9.118;2023-01-15T16:26:51;2.80;99.90
8067;DHT22;4076;48.076;9.118;2023-01-15T16:29:21;2.70;99.90
8067;DHT22;4076;48.076;9.118;2023-01-15T16:31:49;2.70;99.90
8067;DHT22;4076;48.076;9.118;2023-01-15T16:34:22;2.60;99.90
8067;DHT22;4076;48.076;9.118;2023-01-15T16:36:49;2.50;99.90
8067;DHT22;4076;48.076;9.118;2023-01-15T16:39:22;2.50;99.90
8067;DHT22;4076;48.076;9.118;2023-01-15T16:41:50;2.40;99.90
8067;DHT22;4076;48.076;9.118;2023-01-15T16:44:32;2.30;99.90
8067;DHT22;4076;48.076;9.118;2023-01-15T16:46:59;2.30;99.90
8067;DHT22;4076;48.076;9.118;2023-01-15T16:49:28;2.30;99.90
8067;DHT22;4076;48.076;9.118;2023-01-15T16:51:59;2.20;99.90
8067;DHT22;4076;48.076;9.118;2023-01-15T16:57:33;2.10;99.90
8067;DHT22;4076;48.076;9.118;2023-01-15T17:00:03;2.00;99.90
8067;DHT22;4076;48.076;9.118;2023-01-15T17:02:43;2.00;99.90
8067;DHT22;4076;48.076;9.118;2023-01-15T17:05:17;2.10;99.90
8067;DHT22;4076;48.076;9.118;2023-01-15T17:07:46;1.90;99.90
8067;DHT22;4076;48.076;9.118;2023-01-15T17:10:22;1.90;99.90
8067;DHT22;4076;48.076;9.118;2023-01-15T17:12:49;1.90;99.90
8067;DHT22;4076;48.076;9.118;2023-01-15T17:17:50;1.70;99.90
8067;DHT22;4076;48.076;9.118;2023-01-15T17:20:17;1.70;99.90
8067;DHT22;4076;48.076;9.118;2023-01-15T17:22:45;1.70;99.90
8067;DHT22;4076;48.076;9.118;2023-01-15T17:27:48;1.60;99.90
8067;DHT22;4076;48.076;9.118;2023-01-15T17:30:14;1.60;99.90
8067;DHT22;4076;48.076;9.118;2023-01-15T17:32:40;1.50;99.90
8067;DHT22;4076;48.076;9.118;2023-01-15T17:37:45;1.50;99.90
8067;DHT22;4076;48.076;9.118;2023-01-15T17:40:11;1.50;99.90
8067;DHT22;4076;48.076;9.118;2023-01-15T17:42:36;1.40;99.90
8067;DHT22;4076;48.076;9.118;2023-01-15T17:45:02;1.40;99.90
8067;DHT22;4076;48.076;9.118;2023-01-15T17:47:28;1.30;99.90
8067;DHT22;4076;48.076;9.118;2023-01-15T17:49:53;1.30;99.90
8067;DHT22;4076;48.076;9.118;2023-01-15T17:52:19;1.30;99.90
8067;DHT22;4076;48.076;9.118;2023-01-15T17:54:45;1.30;99.90
8067;DHT22;4076;48.076;9.118;2023-01-15T17:57:29;1.20;99.90
8067;DHT22;4076;48.076;9.118;2023-01-15T18:00:13;1.20;99.90
8067;DHT22;4076;48.076;9.118;2023-01-15T18:02:58;1.20;99.90
8067;DHT22;4076;48.076;9.118;2023-01-15T18:05:46;1.10;99.90
8067;DHT22;4076;48.076;9.118;2023-01-15T18:08:12;1.10;99.90
8067;DHT22;4076;48.076;9.118;2023-01-15T18:10:38;1.10;99.90
8067;DHT22;4076;48.076;9.118;2023-01-15T18:13:04;1.10;99.90
8067;DHT22;4076;48.076;9.118;2023-01-15T18:15:32;1.10;99.90
8067;DHT22;4076;48.076;9.118;2023-01-15T18:17:57;1.10;99.90
8067;DHT22;4076;48.076;9.118;2023-01-15T18:20:23;1.10;99.90
8067;DHT22;4076;48.076;9.118;2023-01-15T18:22:49;1.10;99.90
8067;DHT22;4076;48.076;9.118;2023-01-15T18:25:14;1.20;99.90
8067;DHT22;4076;48.076;9.118;2023-01-15T18:27:40;1.20;99.90
8067;DHT22;4076;48.076;9.118;2023-01-15T18:30:11;1.20;99.90
8067;DHT22;4076;48.076;9.118;2023-01-15T18:32:37;1.20;99.90
8067;DHT22;4076;48.076;9.118;2023-01-15T18:35:04;1.20;99.90
8067;DHT22;4076;48.076;9.118;2023-01-15T18:37:29;1.20;99.90
8067;DHT22;4076;48.076;9.118;2023-01-15T18:39:56;1.20;99.90
8067;DHT22;4076;48.076;9.118;2023-01-15T18:42:21;1.20;99.90
8067;DHT22;4076;48.076;9.118;2023-01-15T18:45:06;1.20;99.90
8067;DHT22;4076;48.076;9.118;2023-01-15T18:47:51;1.10;99.90
8067;DHT22;4076;48.076;9.118;2023-01-15T18:50:16;1.10;99.90
8067;DHT22;4076;48.076;9.118;2023-01-15T18:52:42;1.10;99.90
8067;DHT22;4076;48.076;9.118;2023-01-15T18:55:18;1.10;99.90
8067;DHT22;4076;48.076;9.118;2023-01-15T18:57:54;1.10;99.90
8067;DHT22;4076;48.076;9.118;2023-01-15T19:00:21;1.10;99.90
8067;DHT22;4076;48.076;9.118;2023-01-15T19:02:47;1.00;99.90
8067;DHT22;4076;48.076;9.118;2023-01-15T19:05:13;1.00;99.90
8067;DHT22;4076;48.076;9.118;2023-01-15T19:07:41;1.00;99.90
8067;DHT22;4076;48.076;9.118;2023-01-15T19:10:09;1.00;99.90
8067;DHT22;4076;48.076;9.118;2023-01-15T19:12:35;1.00;99.90